Terminal Aerodrome Forecast
Issued by NWS

Home | Current Version | Previous Version | Text Only | Print | Product List | Glossary On
Versions: 1 2 3 4 5 6 7 8 9 10 11 12 13 14 15 16 17 18 19
000
FTUS43 KOAX 020520
TAFCDR
TAF
KCDR 020520Z 0206/0306 18017G27KT P6SM VCSH BKN060 OVC080
     FM020900 20014KT P6SM SCT100
     FM021900 32010KT P6SM SCT050=

USA.gov is the U.S. government's official web portal to all federal, state and local government web resources and services.